Kitty C — 2EIQ6 — position and weather

sailwx.info

Track history (hours):
 
Tides and Currents Weather Stations Pressure Air Temp Water Temp Dewpoint Dewpoint Depression Visibility Wind Speed Wind Dir Waves Ship Positions

Kitty C

Last reported at 2018-Jun-14 17:52 UTC. Time now 2018-Jun-20 15:30 UTC.
Position N 37°13' E 001°48'.

Length 106 m; draft 6.2 m.

Type: Cargo ship. MMSI: 235085464.

Date/timePositionNaut miles runAvg speedWind from/ knotsBaromVisibWave heightAir tempDewpointWater temp
2018-Jun-14 17:52N 37°13' E 001°48'54 9.3
2018-Jun-14 12:04N 36°59' E 000°43'1 9.1
2018-Jun-14 11:59N 36°58' E 000°42'5 9.2
2018-Jun-14 11:24N 36°57' E 000°35'36 9.2
2018-Jun-14 07:27N 36°48' W 000°09'25 9.1
2018-Jun-14 04:45N 36°41' W 000°38'2 9.8
2018-Jun-14 04:30N 36°41' W 000°41'29 9.8
2018-Jun-14 01:32N 36°33' W 001°16'19510.2
2018-Jun-13 06:29N 35°60' W 005°14'511.3
2018-Jun-13 06:00N 35°59' W 005°21'713.3
2018-Jun-13 05:30N 35°57' W 005°29'612.0
2018-Jun-13 04:59N 35°55' W 005°36'6 0.1
2018-Jun-11 07:10N 35°59' W 005°30'1 6.7
2018-Jun-11 06:58N 35°60' W 005°29'3 6.2
2018-Jun-11 06:28N 36°00' W 005°25'3 5.4
2018-Jun-11 05:59N 36°00' W 005°22'2 5.0
2018-Jun-11 05:30N 36°01' W 005°19'3 5.1
2018-Jun-11 05:00N 36°01' W 005°16'3 6.1
2018-Jun-11 04:31N 36°02' W 005°12'4 6.5
2018-Jun-11 03:54N 36°01' W 005°07'  
2018-Jun-07 15:20N 35°59' W 005°14'3 8.9
2018-Jun-07 15:00N 35°59' W 005°17'510.5
2018-Jun-07 14:30N 35°58' W 005°24'263 8.0
2018-Jun-06 05:39N 38°23' W 009°60'5 9.6
2018-Jun-06 05:09N 38°28' W 010°01'1 9.6
2018-Jun-06 05:00N 38°29' W 010°01'10 9.7
2018-Jun-06 03:56N 38°39' W 010°04'5 9.6
2018-Jun-06 03:23N 38°45' W 010°05'3 9.1
2018-Jun-06 03:00N 38°48' W 010°05'5 9.0
2018-Jun-06 02:26N 38°53' W 010°05'4 9.4
2018-Jun-06 02:00N 38°57' W 010°05'5 9.5
2018-Jun-06 01:30N 39°02' W 010°05'5 9.4
2018-Jun-06 01:00N 39°07' W 010°05'  
Track history (hours):
 
Tides and Currents Weather Stations Pressure Air Temp Water Temp Dewpoint Dewpoint Depression Visibility Wind Speed Wind Dir Waves Ship Positions

Kitty C

Last reported at 2018-Jun-14 17:52 UTC. Time now 2018-Jun-20 15:30 UTC.
Position N 37°13' E 001°48'.

Length 106 m; draft 6.2 m.

Type: Cargo ship. MMSI: 235085464.

Date/timePositionNaut miles runAvg speedWind from/ knotsBaromVisibWave heightAir tempDewpointWater temp
2018-Jun-14 17:52N 37°13' E 001°48'54 9.3
2018-Jun-14 12:04N 36°59' E 000°43'1 9.1
2018-Jun-14 11:59N 36°58' E 000°42'5 9.2
2018-Jun-14 11:24N 36°57' E 000°35'36 9.2
2018-Jun-14 07:27N 36°48' W 000°09'25 9.1
2018-Jun-14 04:45N 36°41' W 000°38'2 9.8
2018-Jun-14 04:30N 36°41' W 000°41'29 9.8
2018-Jun-14 01:32N 36°33' W 001°16'19510.2
2018-Jun-13 06:29N 35°60' W 005°14'511.3
2018-Jun-13 06:00N 35°59' W 005°21'713.3
2018-Jun-13 05:30N 35°57' W 005°29'612.0
2018-Jun-13 04:59N 35°55' W 005°36'6 0.1
2018-Jun-11 07:10N 35°59' W 005°30'1 6.7
2018-Jun-11 06:58N 35°60' W 005°29'3 6.2
2018-Jun-11 06:28N 36°00' W 005°25'3 5.4
2018-Jun-11 05:59N 36°00' W 005°22'2 5.0
2018-Jun-11 05:30N 36°01' W 005°19'3 5.1
2018-Jun-11 05:00N 36°01' W 005°16'3 6.1
2018-Jun-11 04:31N 36°02' W 005°12'4 6.5
2018-Jun-11 03:54N 36°01' W 005°07'  
2018-Jun-07 15:20N 35°59' W 005°14'3 8.9
2018-Jun-07 15:00N 35°59' W 005°17'510.5
2018-Jun-07 14:30N 35°58' W 005°24'263 8.0
2018-Jun-06 05:39N 38°23' W 009°60'5 9.6
2018-Jun-06 05:09N 38°28' W 010°01'1 9.6
2018-Jun-06 05:00N 38°29' W 010°01'10 9.7
2018-Jun-06 03:56N 38°39' W 010°04'5 9.6
2018-Jun-06 03:23N 38°45' W 010°05'3 9.1
2018-Jun-06 03:00N 38°48' W 010°05'5 9.0
2018-Jun-06 02:26N 38°53' W 010°05'4 9.4
2018-Jun-06 02:00N 38°57' W 010°05'5 9.5
2018-Jun-06 01:30N 39°02' W 010°05'5 9.4
2018-Jun-06 01:00N 39°07' W 010°05'  

Dump ship's entire track history